sensor_id;sensor_type;location;lat;lon;timestamp;P1;durP1;ratioP1;P2;durP2;ratioP2
23206;SDS011;11773;52.570;13.052;2023-08-31T00:01:40;0.60;;;0.60;;
23206;SDS011;11773;52.570;13.052;2023-08-31T00:04:10;0.57;;;0.50;;
23206;SDS011;11773;52.570;13.052;2023-08-31T00:06:41;0.60;;;0.60;;
23206;SDS011;11773;52.570;13.052;2023-08-31T00:09:13;0.63;;;0.63;;
23206;SDS011;11773;52.570;13.052;2023-08-31T00:11:42;0.80;;;0.80;;
23206;SDS011;11773;52.570;13.052;2023-08-31T00:14:12;0.63;;;0.63;;
23206;SDS011;11773;52.570;13.052;2023-08-31T00:16:42;0.70;;;0.70;;
23206;SDS011;11773;52.570;13.052;2023-08-31T00:19:14;0.60;;;0.60;;
23206;SDS011;11773;52.570;13.052;2023-08-31T00:21:44;0.80;;;0.80;;
23206;SDS011;11773;52.570;13.052;2023-08-31T00:24:15;0.90;;;0.90;;
23206;SDS011;11773;52.570;13.052;2023-08-31T00:26:45;0.60;;;0.60;;
23206;SDS011;11773;52.570;13.052;2023-08-31T00:29:18;0.53;;;0.50;;
23206;SDS011;11773;52.570;13.052;2023-08-31T00:31:47;0.70;;;0.70;;
23206;SDS011;11773;52.570;13.052;2023-08-31T00:34:18;0.90;;;0.90;;
23206;SDS011;11773;52.570;13.052;2023-08-31T00:36:48;0.70;;;0.70;;
23206;SDS011;11773;52.570;13.052;2023-08-31T00:39:18;0.80;;;0.80;;
23206;SDS011;11773;52.570;13.052;2023-08-31T00:41:48;0.60;;;0.60;;
23206;SDS011;11773;52.570;13.052;2023-08-31T00:44:17;1.00;;;0.90;;
23206;SDS011;11773;52.570;13.052;2023-08-31T00:46:48;0.73;;;0.73;;
23206;SDS011;11773;52.570;13.052;2023-08-31T00:49:18;0.60;;;0.60;;
23206;SDS011;11773;52.570;13.052;2023-08-31T00:51:48;0.60;;;0.60;;
23206;SDS011;11773;52.570;13.052;2023-08-31T00:54:18;0.60;;;0.60;;
23206;SDS011;11773;52.570;13.052;2023-08-31T00:56:54;0.63;;;0.63;;
23206;SDS011;11773;52.570;13.052;2023-08-31T00:59:24;0.47;;;0.47;;
23206;SDS011;11773;52.570;13.052;2023-08-31T01:02:02;0.60;;;0.60;;
23206;SDS011;11773;52.570;13.052;2023-08-31T01:04:47;1.40;;;1.30;;
23206;SDS011;11773;52.570;13.052;2023-08-31T01:07:40;1.17;;;1.07;;
23206;SDS011;11773;52.570;13.052;2023-08-31T01:10:23;0.90;;;0.90;;
23206;SDS011;11773;52.570;13.052;2023-08-31T01:13:07;1.00;;;1.00;;
23206;SDS011;11773;52.570;13.052;2023-08-31T01:15:44;0.70;;;0.70;;
23206;SDS011;11773;52.570;13.052;2023-08-31T01:18:16;0.63;;;0.63;;
23206;SDS011;11773;52.570;13.052;2023-08-31T01:20:59;0.60;;;0.60;;
23206;SDS011;11773;52.570;13.052;2023-08-31T01:23:44;0.40;;;0.40;;
23206;SDS011;11773;52.570;13.052;2023-08-31T01:26:15;0.60;;;0.60;;
23206;SDS011;11773;52.570;13.052;2023-08-31T01:28:46;0.40;;;0.40;;
23206;SDS011;11773;52.570;13.052;2023-08-31T01:31:17;0.50;;;0.50;;
23206;SDS011;11773;52.570;13.052;2023-08-31T01:33:47;0.67;;;0.67;;
23206;SDS011;11773;52.570;13.052;2023-08-31T01:36:26;0.40;;;0.40;;
23206;SDS011;11773;52.570;13.052;2023-08-31T01:39:02;0.50;;;0.50;;
23206;SDS011;11773;52.570;13.052;2023-08-31T01:41:48;0.70;;;0.70;;
23206;SDS011;11773;52.570;13.052;2023-08-31T01:44:22;0.40;;;0.40;;
23206;SDS011;11773;52.570;13.052;2023-08-31T01:46:57;0.50;;;0.50;;
23206;SDS011;11773;52.570;13.052;2023-08-31T01:49:28;0.50;;;0.50;;
23206;SDS011;11773;52.570;13.052;2023-08-31T01:52:10;0.40;;;0.40;;
23206;SDS011;11773;52.570;13.052;2023-08-31T01:54:39;0.40;;;0.40;;
23206;SDS011;11773;52.570;13.052;2023-08-31T01:57:09;0.40;;;0.40;;
23206;SDS011;11773;52.570;13.052;2023-08-31T01:59:39;0.40;;;0.40;;
23206;SDS011;11773;52.570;13.052;2023-08-31T02:02:09;0.43;;;0.43;;
23206;SDS011;11773;52.570;13.052;2023-08-31T02:04:39;0.40;;;0.40;;
23206;SDS011;11773;52.570;13.052;2023-08-31T02:07:10;0.47;;;0.47;;
23206;SDS011;11773;52.570;13.052;2023-08-31T02:09:39;0.47;;;0.47;;
23206;SDS011;11773;52.570;13.052;2023-08-31T02:12:09;0.40;;;0.40;;
23206;SDS011;11773;52.570;13.052;2023-08-31T02:14:38;0.50;;;0.50;;
23206;SDS011;11773;52.570;13.052;2023-08-31T02:17:08;0.40;;;0.40;;
23206;SDS011;11773;52.570;13.052;2023-08-31T02:19:37;0.40;;;0.40;;
23206;SDS011;11773;52.570;13.052;2023-08-31T02:22:07;0.47;;;0.47;;
23206;SDS011;11773;52.570;13.052;2023-08-31T02:24:37;0.50;;;0.50;;
23206;SDS011;11773;52.570;13.052;2023-08-31T02:27:06;0.50;;;0.50;;
23206;SDS011;11773;52.570;13.052;2023-08-31T02:29:36;0.40;;;0.40;;
23206;SDS011;11773;52.570;13.052;2023-08-31T02:32:06;0.63;;;0.63;;
23206;SDS011;11773;52.570;13.052;2023-08-31T02:34:36;0.40;;;0.40;;
23206;SDS011;11773;52.570;13.052;2023-08-31T02:37:05;0.50;;;0.50;;
23206;SDS011;11773;52.570;13.052;2023-08-31T02:39:35;0.37;;;0.37;;
23206;SDS011;11773;52.570;13.052;2023-08-31T02:42:04;0.53;;;0.53;;
23206;SDS011;11773;52.570;13.052;2023-08-31T02:44:34;0.57;;;0.57;;
23206;SDS011;11773;52.570;13.052;2023-08-31T02:47:04;0.40;;;0.40;;
23206;SDS011;11773;52.570;13.052;2023-08-31T02:49:34;0.60;;;0.60;;
23206;SDS011;11773;52.570;13.052;2023-08-31T02:52:03;0.40;;;0.40;;
23206;SDS011;11773;52.570;13.052;2023-08-31T02:54:33;0.37;;;0.37;;
23206;SDS011;11773;52.570;13.052;2023-08-31T02:57:03;0.50;;;0.50;;
23206;SDS011;11773;52.570;13.052;2023-08-31T02:59:32;0.70;;;0.70;;
23206;SDS011;11773;52.570;13.052;2023-08-31T03:02:03;0.30;;;0.30;;
23206;SDS011;11773;52.570;13.052;2023-08-31T03:04:32;0.97;;;0.57;;
23206;SDS011;11773;52.570;13.052;2023-08-31T03:07:03;0.43;;;0.33;;
23206;SDS011;11773;52.570;13.052;2023-08-31T03:09:33;0.50;;;0.50;;
23206;SDS011;11773;52.570;13.052;2023-08-31T03:12:02;0.50;;;0.50;;
23206;SDS011;11773;52.570;13.052;2023-08-31T03:14:32;0.60;;;0.60;;
23206;SDS011;11773;52.570;13.052;2023-08-31T03:17:01;0.60;;;0.60;;
23206;SDS011;11773;52.570;13.052;2023-08-31T03:19:31;0.57;;;0.57;;
23206;SDS011;11773;52.570;13.052;2023-08-31T03:22:01;0.50;;;0.50;;
23206;SDS011;11773;52.570;13.052;2023-08-31T03:24:31;0.60;;;0.60;;
23206;SDS011;11773;52.570;13.052;2023-08-31T03:27:21;0.50;;;0.50;;
23206;SDS011;11773;52.570;13.052;2023-08-31T03:29:51;0.50;;;0.50;;
23206;SDS011;11773;52.570;13.052;2023-08-31T03:32:20;0.60;;;0.60;;
23206;SDS011;11773;52.570;13.052;2023-08-31T03:34:50;0.50;;;0.50;;
23206;SDS011;11773;52.570;13.052;2023-08-31T03:37:19;0.70;;;0.70;;
23206;SDS011;11773;52.570;13.052;2023-08-31T03:39:49;0.40;;;0.40;;
23206;SDS011;11773;52.570;13.052;2023-08-31T03:42:19;0.57;;;0.57;;
23206;SDS011;11773;52.570;13.052;2023-08-31T03:44:48;0.50;;;0.50;;
23206;SDS011;11773;52.570;13.052;2023-08-31T03:47:18;0.57;;;0.57;;
23206;SDS011;11773;52.570;13.052;2023-08-31T03:49:47;0.50;;;0.50;;
23206;SDS011;11773;52.570;13.052;2023-08-31T03:52:17;0.63;;;0.63;;
23206;SDS011;11773;52.570;13.052;2023-08-31T03:54:46;0.40;;;0.40;;
23206;SDS011;11773;52.570;13.052;2023-08-31T03:57:16;0.67;;;0.67;;
23206;SDS011;11773;52.570;13.052;2023-08-31T03:59:46;0.50;;;0.50;;
23206;SDS011;11773;52.570;13.052;2023-08-31T04:02:15;0.60;;;0.60;;
23206;SDS011;11773;52.570;13.052;2023-08-31T04:04:45;0.77;;;0.77;;
23206;SDS011;11773;52.570;13.052;2023-08-31T04:07:15;0.90;;;0.60;;
23206;SDS011;11773;52.570;13.052;2023-08-31T04:09:44;0.63;;;0.63;;
23206;SDS011;11773;52.570;13.052;2023-08-31T04:12:14;0.60;;;0.60;;
23206;SDS011;11773;52.570;13.052;2023-08-31T04:14:43;0.73;;;0.60;;
23206;SDS011;11773;52.570;13.052;2023-08-31T04:17:13;0.60;;;0.60;;
23206;SDS011;11773;52.570;13.052;2023-08-31T04:19:42;0.60;;;0.60;;
23206;SDS011;11773;52.570;13.052;2023-08-31T04:22:12;0.50;;;0.50;;
23206;SDS011;11773;52.570;13.052;2023-08-31T04:24:41;0.57;;;0.57;;
23206;SDS011;11773;52.570;13.052;2023-08-31T04:27:11;0.60;;;0.60;;
23206;SDS011;11773;52.570;13.052;2023-08-31T04:29:41;0.80;;;0.80;;
23206;SDS011;11773;52.570;13.052;2023-08-31T04:32:10;0.90;;;0.90;;
23206;SDS011;11773;52.570;13.052;2023-08-31T04:34:40;0.80;;;0.80;;
23206;SDS011;11773;52.570;13.052;2023-08-31T04:37:09;0.63;;;0.60;;
23206;SDS011;11773;52.570;13.052;2023-08-31T04:39:39;0.80;;;0.80;;
23206;SDS011;11773;52.570;13.052;2023-08-31T04:42:08;0.63;;;0.63;;
23206;SDS011;11773;52.570;13.052;2023-08-31T04:44:38;0.67;;;0.67;;
23206;SDS011;11773;52.570;13.052;2023-08-31T04:47:07;0.87;;;0.87;;
23206;SDS011;11773;52.570;13.052;2023-08-31T04:49:37;0.60;;;0.60;;
23206;SDS011;11773;52.570;13.052;2023-08-31T04:52:07;0.60;;;0.60;;
23206;SDS011;11773;52.570;13.052;2023-08-31T04:54:36;1.20;;;1.10;;
23206;SDS011;11773;52.570;13.052;2023-08-31T04:57:06;0.90;;;0.90;;
23206;SDS011;11773;52.570;13.052;2023-08-31T04:59:37;1.10;;;1.00;;
23206;SDS011;11773;52.570;13.052;2023-08-31T05:02:06;1.07;;;1.07;;
23206;SDS011;11773;52.570;13.052;2023-08-31T05:04:36;0.77;;;0.77;;
23206;SDS011;11773;52.570;13.052;2023-08-31T05:07:05;0.60;;;0.60;;
23206;SDS011;11773;52.570;13.052;2023-08-31T05:09:35;0.80;;;0.80;;
23206;SDS011;11773;52.570;13.052;2023-08-31T05:12:05;0.60;;;0.60;;
23206;SDS011;11773;52.570;13.052;2023-08-31T05:14:36;0.70;;;0.70;;
23206;SDS011;11773;52.570;13.052;2023-08-31T05:17:06;0.80;;;0.80;;
23206;SDS011;11773;52.570;13.052;2023-08-31T05:19:36;1.00;;;1.00;;
23206;SDS011;11773;52.570;13.052;2023-08-31T05:22:05;0.80;;;0.80;;
23206;SDS011;11773;52.570;13.052;2023-08-31T05:24:35;0.80;;;0.80;;
23206;SDS011;11773;52.570;13.052;2023-08-31T05:27:05;1.57;;;1.47;;
23206;SDS011;11773;52.570;13.052;2023-08-31T05:29:34;1.10;;;1.10;;
23206;SDS011;11773;52.570;13.052;2023-08-31T05:32:04;0.80;;;0.80;;
23206;SDS011;11773;52.570;13.052;2023-08-31T05:34:34;1.13;;;1.13;;
23206;SDS011;11773;52.570;13.052;2023-08-31T05:37:05;0.80;;;0.80;;
23206;SDS011;11773;52.570;13.052;2023-08-31T05:39:35;1.20;;;1.10;;
23206;SDS011;11773;52.570;13.052;2023-08-31T05:42:04;0.87;;;0.87;;
23206;SDS011;11773;52.570;13.052;2023-08-31T05:44:34;1.37;;;1.17;;
23206;SDS011;11773;52.570;13.052;2023-08-31T05:47:03;1.00;;;1.00;;
23206;SDS011;11773;52.570;13.052;2023-08-31T05:49:33;0.90;;;0.90;;
23206;SDS011;11773;52.570;13.052;2023-08-31T05:52:02;0.70;;;0.70;;
23206;SDS011;11773;52.570;13.052;2023-08-31T05:54:32;1.10;;;1.10;;
23206;SDS011;11773;52.570;13.052;2023-08-31T05:57:02;0.80;;;0.80;;
23206;SDS011;11773;52.570;13.052;2023-08-31T05:59:32;0.73;;;0.73;;
23206;SDS011;11773;52.570;13.052;2023-08-31T06:02:02;0.90;;;0.90;;
23206;SDS011;11773;52.570;13.052;2023-08-31T06:04:32;0.87;;;0.87;;
23206;SDS011;11773;52.570;13.052;2023-08-31T06:07:03;0.90;;;0.90;;
23206;SDS011;11773;52.570;13.052;2023-08-31T06:09:32;1.30;;;1.20;;
23206;SDS011;11773;52.570;13.052;2023-08-31T06:12:02;1.20;;;1.10;;
23206;SDS011;11773;52.570;13.052;2023-08-31T06:14:33;0.90;;;0.87;;
23206;SDS011;11773;52.570;13.052;2023-08-31T06:17:03;1.30;;;1.20;;
23206;SDS011;11773;52.570;13.052;2023-08-31T06:19:32;1.50;;;1.40;;
23206;SDS011;11773;52.570;13.052;2023-08-31T06:22:03;0.97;;;0.97;;
23206;SDS011;11773;52.570;13.052;2023-08-31T06:24:33;1.00;;;1.00;;
23206;SDS011;11773;52.570;13.052;2023-08-31T06:27:04;0.60;;;0.60;;
23206;SDS011;11773;52.570;13.052;2023-08-31T06:29:33;0.87;;;0.87;;
23206;SDS011;11773;52.570;13.052;2023-08-31T06:32:04;0.77;;;0.77;;
23206;SDS011;11773;52.570;13.052;2023-08-31T06:34:34;0.80;;;0.80;;
23206;SDS011;11773;52.570;13.052;2023-08-31T06:37:04;1.40;;;1.30;;
23206;SDS011;11773;52.570;13.052;2023-08-31T06:39:33;1.50;;;1.40;;
23206;SDS011;11773;52.570;13.052;2023-08-31T06:42:03;1.13;;;1.07;;
23206;SDS011;11773;52.570;13.052;2023-08-31T06:44:33;1.53;;;1.30;;
23206;SDS011;11773;52.570;13.052;2023-08-31T06:47:02;1.70;;;1.60;;
23206;SDS011;11773;52.570;13.052;2023-08-31T06:49:33;1.40;;;1.30;;
23206;SDS011;11773;52.570;13.052;2023-08-31T06:52:02;1.37;;;1.17;;
23206;SDS011;11773;52.570;13.052;2023-08-31T06:54:36;1.27;;;1.17;;
23206;SDS011;11773;52.570;13.052;2023-08-31T06:57:05;1.20;;;1.17;;
23206;SDS011;11773;52.570;13.052;2023-08-31T06:59:35;1.10;;;1.00;;
23206;SDS011;11773;52.570;13.052;2023-08-31T07:02:05;1.63;;;0.93;;
23206;SDS011;11773;52.570;13.052;2023-08-31T07:04:34;1.03;;;1.00;;
23206;SDS011;11773;52.570;13.052;2023-08-31T07:07:05;0.90;;;0.90;;
23206;SDS011;11773;52.570;13.052;2023-08-31T07:09:35;1.00;;;1.00;;
23206;SDS011;11773;52.570;13.052;2023-08-31T07:12:05;1.07;;;1.00;;
23206;SDS011;11773;52.570;13.052;2023-08-31T07:14:35;0.90;;;0.90;;
23206;SDS011;11773;52.570;13.052;2023-08-31T07:17:04;0.90;;;0.90;;
23206;SDS011;11773;52.570;13.052;2023-08-31T07:19:37;0.90;;;0.90;;
23206;SDS011;11773;52.570;13.052;2023-08-31T07:22:07;0.80;;;0.80;;
23206;SDS011;11773;52.570;13.052;2023-08-31T07:24:37;0.80;;;0.80;;
23206;SDS011;11773;52.570;13.052;2023-08-31T07:27:06;2.07;;;1.13;;
23206;SDS011;11773;52.570;13.052;2023-08-31T07:29:36;1.00;;;1.00;;
23206;SDS011;11773;52.570;13.052;2023-08-31T07:32:06;1.40;;;1.30;;
23206;SDS011;11773;52.570;13.052;2023-08-31T07:34:37;1.70;;;1.30;;
23206;SDS011;11773;52.570;13.052;2023-08-31T07:37:06;1.10;;;1.10;;
23206;SDS011;11773;52.570;13.052;2023-08-31T07:39:36;1.20;;;1.10;;
23206;SDS011;11773;52.570;13.052;2023-08-31T07:42:06;1.20;;;1.10;;
23206;SDS011;11773;52.570;13.052;2023-08-31T07:44:35;1.77;;;1.20;;
23206;SDS011;11773;52.570;13.052;2023-08-31T07:47:05;1.07;;;0.97;;
23206;SDS011;11773;52.570;13.052;2023-08-31T07:49:34;1.03;;;1.00;;
23206;SDS011;11773;52.570;13.052;2023-08-31T07:52:04;0.80;;;0.80;;
23206;SDS011;11773;52.570;13.052;2023-08-31T07:54:33;1.07;;;1.03;;
23206;SDS011;11773;52.570;13.052;2023-08-31T07:57:03;1.03;;;1.00;;
23206;SDS011;11773;52.570;13.052;2023-08-31T07:59:33;0.87;;;0.87;;
23206;SDS011;11773;52.570;13.052;2023-08-31T08:02:04;0.90;;;0.90;;
23206;SDS011;11773;52.570;13.052;2023-08-31T08:04:34;1.00;;;1.00;;
23206;SDS011;11773;52.570;13.052;2023-08-31T08:07:04;0.80;;;0.80;;
23206;SDS011;11773;52.570;13.052;2023-08-31T08:09:34;0.83;;;0.80;;
23206;SDS011;11773;52.570;13.052;2023-08-31T08:12:04;0.80;;;0.80;;
23206;SDS011;11773;52.570;13.052;2023-08-31T08:14:36;1.27;;;1.17;;
23206;SDS011;11773;52.570;13.052;2023-08-31T08:17:08;1.53;;;0.77;;
23206;SDS011;11773;52.570;13.052;2023-08-31T08:19:38;1.10;;;0.83;;
23206;SDS011;11773;52.570;13.052;2023-08-31T08:22:11;0.90;;;0.67;;
23206;SDS011;11773;52.570;13.052;2023-08-31T08:24:40;0.77;;;0.77;;
23206;SDS011;11773;52.570;13.052;2023-08-31T08:27:10;0.83;;;0.50;;
23206;SDS011;11773;52.570;13.052;2023-08-31T08:29:39;0.50;;;0.50;;
23206;SDS011;11773;52.570;13.052;2023-08-31T08:32:09;0.60;;;0.60;;
23206;SDS011;11773;52.570;13.052;2023-08-31T08:34:38;0.73;;;0.60;;
23206;SDS011;11773;52.570;13.052;2023-08-31T08:37:08;0.60;;;0.60;;
23206;SDS011;11773;52.570;13.052;2023-08-31T08:39:37;0.70;;;0.70;;
23206;SDS011;11773;52.570;13.052;2023-08-31T08:42:07;0.67;;;0.60;;
23206;SDS011;11773;52.570;13.052;2023-08-31T08:44:39;0.50;;;0.50;;
23206;SDS011;11773;52.570;13.052;2023-08-31T08:47:16;0.60;;;0.60;;
23206;SDS011;11773;52.570;13.052;2023-08-31T08:49:42;0.93;;;0.40;;
23206;SDS011;11773;52.570;13.052;2023-08-31T08:52:12;0.70;;;0.70;;
23206;SDS011;11773;52.570;13.052;2023-08-31T08:54:44;0.93;;;0.80;;
23206;SDS011;11773;52.570;13.052;2023-08-31T08:57:13;0.53;;;0.53;;
23206;SDS011;11773;52.570;13.052;2023-08-31T08:59:43;0.57;;;0.50;;
23206;SDS011;11773;52.570;13.052;2023-08-31T09:02:12;0.60;;;0.60;;
23206;SDS011;11773;52.570;13.052;2023-08-31T09:04:42;1.27;;;0.70;;
23206;SDS011;11773;52.570;13.052;2023-08-31T09:07:12;0.57;;;0.53;;
23206;SDS011;11773;52.570;13.052;2023-08-31T09:09:48;0.40;;;0.40;;
23206;SDS011;11773;52.570;13.052;2023-08-31T09:12:22;1.17;;;0.70;;
23206;SDS011;11773;52.570;13.052;2023-08-31T09:14:58;1.07;;;0.70;;
23206;SDS011;11773;52.570;13.052;2023-08-31T09:17:37;0.60;;;0.60;;
23206;SDS011;11773;52.570;13.052;2023-08-31T09:20:11;0.70;;;0.70;;
23206;SDS011;11773;52.570;13.052;2023-08-31T09:22:44;0.70;;;0.70;;
23206;SDS011;11773;52.570;13.052;2023-08-31T09:25:16;1.70;;;0.80;;
23206;SDS011;11773;52.570;13.052;2023-08-31T09:27:48;0.80;;;0.73;;
23206;SDS011;11773;52.570;13.052;2023-08-31T09:30:17;0.70;;;0.70;;
23206;SDS011;11773;52.570;13.052;2023-08-31T09:32:51;0.90;;;0.60;;
23206;SDS011;11773;52.570;13.052;2023-08-31T09:35:21;1.60;;;0.80;;
23206;SDS011;11773;52.570;13.052;2023-08-31T09:37:56;0.50;;;0.50;;
23206;SDS011;11773;52.570;13.052;2023-08-31T09:40:25;0.60;;;0.50;;
23206;SDS011;11773;52.570;13.052;2023-08-31T09:42:55;0.77;;;0.77;;
23206;SDS011;11773;52.570;13.052;2023-08-31T09:45:30;0.60;;;0.60;;
23206;SDS011;11773;52.570;13.052;2023-08-31T09:48:03;0.40;;;0.40;;
23206;SDS011;11773;52.570;13.052;2023-08-31T09:50:34;0.43;;;0.43;;
23206;SDS011;11773;52.570;13.052;2023-08-31T09:53:05;1.27;;;0.60;;
23206;SDS011;11773;52.570;13.052;2023-08-31T09:55:39;0.97;;;0.70;;
23206;SDS011;11773;52.570;13.052;2023-08-31T09:58:09;0.90;;;0.67;;
23206;SDS011;11773;52.570;13.052;2023-08-31T10:00:41;0.60;;;0.47;;
23206;SDS011;11773;52.570;13.052;2023-08-31T10:03:13;0.50;;;0.50;;
23206;SDS011;11773;52.570;13.052;2023-08-31T10:05:46;0.50;;;0.50;;
23206;SDS011;11773;52.570;13.052;2023-08-31T10:08:18;0.60;;;0.60;;
23206;SDS011;11773;52.570;13.052;2023-08-31T10:10:48;0.40;;;0.30;;
23206;SDS011;11773;52.570;13.052;2023-08-31T10:13:17;1.20;;;0.60;;
23206;SDS011;11773;52.570;13.052;2023-08-31T10:15:52;0.40;;;0.40;;
23206;SDS011;11773;52.570;13.052;2023-08-31T10:18:22;0.60;;;0.60;;
23206;SDS011;11773;52.570;13.052;2023-08-31T10:20:52;0.30;;;0.30;;
23206;SDS011;11773;52.570;13.052;2023-08-31T10:23:22;0.67;;;0.43;;
23206;SDS011;11773;52.570;13.052;2023-08-31T10:28:26;0.67;;;0.60;;
23206;SDS011;11773;52.570;13.052;2023-08-31T10:31:06;0.53;;;0.53;;
23206;SDS011;11773;52.570;13.052;2023-08-31T10:33:54;0.50;;;0.40;;
23206;SDS011;11773;52.570;13.052;2023-08-31T10:36:39;0.50;;;0.50;;
23206;SDS011;11773;52.570;13.052;2023-08-31T10:39:15;0.70;;;0.70;;
23206;SDS011;11773;52.570;13.052;2023-08-31T10:41:58;0.60;;;0.50;;
23206;SDS011;11773;52.570;13.052;2023-08-31T10:44:24;0.53;;;0.50;;
23206;SDS011;11773;52.570;13.052;2023-08-31T10:46:59;1.27;;;0.50;;
23206;SDS011;11773;52.570;13.052;2023-08-31T10:49:30;0.40;;;0.30;;
23206;SDS011;11773;52.570;13.052;2023-08-31T10:52:23;0.40;;;0.40;;
23206;SDS011;11773;52.570;13.052;2023-08-31T10:54:51;0.20;;;0.20;;
23206;SDS011;11773;52.570;13.052;2023-08-31T10:57:35;0.20;;;0.20;;
23206;SDS011;11773;52.570;13.052;2023-08-31T10:59:58;0.40;;;0.40;;
23206;SDS011;11773;52.570;13.052;2023-08-31T11:02:29;0.30;;;0.30;;
23206;SDS011;11773;52.570;13.052;2023-08-31T11:05:10;0.47;;;0.47;;
23206;SDS011;11773;52.570;13.052;2023-08-31T11:07:44;0.33;;;0.33;;
23206;SDS011;11773;52.570;13.052;2023-08-31T11:10:18;0.40;;;0.40;;
23206;SDS011;11773;52.570;13.052;2023-08-31T11:12:53;0.50;;;0.50;;
23206;SDS011;11773;52.570;13.052;2023-08-31T11:15:27;1.10;;;0.60;;
23206;SDS011;11773;52.570;13.052;2023-08-31T11:17:57;0.43;;;0.43;;
23206;SDS011;11773;52.570;13.052;2023-08-31T11:20:28;1.47;;;0.80;;
23206;SDS011;11773;52.570;13.052;2023-08-31T11:22:59;1.47;;;1.10;;
23206;SDS011;11773;52.570;13.052;2023-08-31T11:25:32;1.57;;;1.00;;
23206;SDS011;11773;52.570;13.052;2023-08-31T11:28:03;2.10;;;0.93;;
23206;SDS011;11773;52.570;13.052;2023-08-31T11:30:36;1.67;;;0.90;;
23206;SDS011;11773;52.570;13.052;2023-08-31T11:33:06;0.90;;;0.90;;
23206;SDS011;11773;52.570;13.052;2023-08-31T11:35:39;0.77;;;0.70;;
23206;SDS011;11773;52.570;13.052;2023-08-31T11:38:12;0.50;;;0.50;;
23206;SDS011;11773;52.570;13.052;2023-08-31T11:40:41;0.60;;;0.60;;
23206;SDS011;11773;52.570;13.052;2023-08-31T11:43:11;0.57;;;0.57;;
23206;SDS011;11773;52.570;13.052;2023-08-31T11:45:45;0.47;;;0.47;;
23206;SDS011;11773;52.570;13.052;2023-08-31T11:48:15;0.83;;;0.80;;
23206;SDS011;11773;52.570;13.052;2023-08-31T11:50:45;0.97;;;0.60;;
23206;SDS011;11773;52.570;13.052;2023-08-31T11:53:15;0.40;;;0.40;;
23206;SDS011;11773;52.570;13.052;2023-08-31T11:55:51;0.60;;;0.60;;
23206;SDS011;11773;52.570;13.052;2023-08-31T11:58:21;0.70;;;0.57;;
23206;SDS011;11773;52.570;13.052;2023-08-31T12:00:54;0.50;;;0.50;;
23206;SDS011;11773;52.570;13.052;2023-08-31T12:03:27;0.50;;;0.50;;
23206;SDS011;11773;52.570;13.052;2023-08-31T12:06:02;0.57;;;0.57;;
23206;SDS011;11773;52.570;13.052;2023-08-31T12:08:32;0.50;;;0.50;;
23206;SDS011;11773;52.570;13.052;2023-08-31T12:11:08;0.70;;;0.70;;
23206;SDS011;11773;52.570;13.052;2023-08-31T12:13:37;1.00;;;0.67;;
23206;SDS011;11773;52.570;13.052;2023-08-31T12:16:13;0.70;;;0.70;;
23206;SDS011;11773;52.570;13.052;2023-08-31T12:18:44;1.00;;;0.90;;
23206;SDS011;11773;52.570;13.052;2023-08-31T12:21:14;0.70;;;0.70;;
23206;SDS011;11773;52.570;13.052;2023-08-31T12:23:45;0.67;;;0.50;;
23206;SDS011;11773;52.570;13.052;2023-08-31T12:26:14;0.40;;;0.40;;
23206;SDS011;11773;52.570;13.052;2023-08-31T12:28:44;1.10;;;0.70;;
23206;SDS011;11773;52.570;13.052;2023-08-31T12:31:14;0.60;;;0.50;;
23206;SDS011;11773;52.570;13.052;2023-08-31T12:33:43;0.57;;;0.57;;
23206;SDS011;11773;52.570;13.052;2023-08-31T12:36:13;0.40;;;0.40;;
23206;SDS011;11773;52.570;13.052;2023-08-31T12:38:43;0.43;;;0.43;;
23206;SDS011;11773;52.570;13.052;2023-08-31T12:41:13;1.10;;;0.77;;
23206;SDS011;11773;52.570;13.052;2023-08-31T12:43:42;0.70;;;0.70;;
23206;SDS011;11773;52.570;13.052;2023-08-31T12:46:12;0.50;;;0.50;;
23206;SDS011;11773;52.570;13.052;2023-08-31T12:48:41;0.60;;;0.60;;
23206;SDS011;11773;52.570;13.052;2023-08-31T12:51:11;0.50;;;0.50;;
23206;SDS011;11773;52.570;13.052;2023-08-31T12:53:41;0.70;;;0.70;;
23206;SDS011;11773;52.570;13.052;2023-08-31T12:56:13;0.40;;;0.40;;
23206;SDS011;11773;52.570;13.052;2023-08-31T12:58:50;0.50;;;0.50;;
23206;SDS011;11773;52.570;13.052;2023-08-31T13:01:21;0.67;;;0.67;;
23206;SDS011;11773;52.570;13.052;2023-08-31T13:03:52;1.10;;;1.00;;
23206;SDS011;11773;52.570;13.052;2023-08-31T13:06:22;1.10;;;0.63;;
23206;SDS011;11773;52.570;13.052;2023-08-31T13:08:52;0.80;;;0.80;;
23206;SDS011;11773;52.570;13.052;2023-08-31T13:11:21;0.80;;;0.80;;
23206;SDS011;11773;52.570;13.052;2023-08-31T13:13:51;0.40;;;0.40;;
23206;SDS011;11773;52.570;13.052;2023-08-31T13:16:22;0.50;;;0.50;;
23206;SDS011;11773;52.570;13.052;2023-08-31T13:18:52;0.50;;;0.50;;
23206;SDS011;11773;52.570;13.052;2023-08-31T13:21:22;0.80;;;0.67;;
23206;SDS011;11773;52.570;13.052;2023-08-31T13:23:51;0.50;;;0.50;;
23206;SDS011;11773;52.570;13.052;2023-08-31T13:26:21;0.40;;;0.40;;
23206;SDS011;11773;52.570;13.052;2023-08-31T13:28:50;0.60;;;0.60;;
23206;SDS011;11773;52.570;13.052;2023-08-31T13:31:20;0.50;;;0.50;;
23206;SDS011;11773;52.570;13.052;2023-08-31T13:33:50;0.60;;;0.60;;
23206;SDS011;11773;52.570;13.052;2023-08-31T13:36:20;0.53;;;0.50;;
23206;SDS011;11773;52.570;13.052;2023-08-31T13:38:50;0.50;;;0.50;;
23206;SDS011;11773;52.570;13.052;2023-08-31T13:41:19;0.50;;;0.50;;
23206;SDS011;11773;52.570;13.052;2023-08-31T13:43:49;0.60;;;0.60;;
23206;SDS011;11773;52.570;13.052;2023-08-31T13:46:19;0.53;;;0.53;;
23206;SDS011;11773;52.570;13.052;2023-08-31T13:48:48;0.70;;;0.60;;
23206;SDS011;11773;52.570;13.052;2023-08-31T13:51:18;0.43;;;0.43;;
23206;SDS011;11773;52.570;13.052;2023-08-31T13:53:47;0.80;;;0.70;;
23206;SDS011;11773;52.570;13.052;2023-08-31T13:56:17;0.40;;;0.40;;
23206;SDS011;11773;52.570;13.052;2023-08-31T13:58:46;0.60;;;0.60;;
23206;SDS011;11773;52.570;13.052;2023-08-31T14:01:16;0.57;;;0.40;;
23206;SDS011;11773;52.570;13.052;2023-08-31T14:03:47;0.20;;;0.20;;
23206;SDS011;11773;52.570;13.052;2023-08-31T14:06:17;0.50;;;0.50;;
23206;SDS011;11773;52.570;13.052;2023-08-31T14:08:47;0.50;;;0.50;;
23206;SDS011;11773;52.570;13.052;2023-08-31T14:11:16;0.50;;;0.50;;
23206;SDS011;11773;52.570;13.052;2023-08-31T14:13:46;0.50;;;0.50;;
23206;SDS011;11773;52.570;13.052;2023-08-31T14:16:16;0.70;;;0.70;;
23206;SDS011;11773;52.570;13.052;2023-08-31T14:18:46;0.40;;;0.40;;
23206;SDS011;11773;52.570;13.052;2023-08-31T14:21:15;0.40;;;0.40;;
23206;SDS011;11773;52.570;13.052;2023-08-31T14:23:45;0.73;;;0.60;;
23206;SDS011;11773;52.570;13.052;2023-08-31T14:26:14;0.63;;;0.40;;
23206;SDS011;11773;52.570;13.052;2023-08-31T14:28:44;0.60;;;0.50;;
23206;SDS011;11773;52.570;13.052;2023-08-31T14:31:13;1.70;;;0.57;;
23206;SDS011;11773;52.570;13.052;2023-08-31T14:33:43;0.40;;;0.40;;
23206;SDS011;11773;52.570;13.052;2023-08-31T14:36:14;0.30;;;0.30;;
23206;SDS011;11773;52.570;13.052;2023-08-31T14:38:44;0.30;;;0.30;;
23206;SDS011;11773;52.570;13.052;2023-08-31T14:41:14;0.17;;;0.17;;
23206;SDS011;11773;52.570;13.052;2023-08-31T14:43:44;0.20;;;0.20;;
23206;SDS011;11773;52.570;13.052;2023-08-31T14:46:13;0.30;;;0.30;;
23206;SDS011;11773;52.570;13.052;2023-08-31T14:48:43;0.20;;;0.20;;
23206;SDS011;11773;52.570;13.052;2023-08-31T14:51:12;0.30;;;0.30;;
23206;SDS011;11773;52.570;13.052;2023-08-31T14:53:43;0.20;;;0.20;;
23206;SDS011;11773;52.570;13.052;2023-08-31T14:56:12;0.40;;;0.23;;
23206;SDS011;11773;52.570;13.052;2023-08-31T14:58:42;0.20;;;0.20;;